createdAt,value
2023-03-11T00:04:14.992Z,97268.91
2023-03-11T00:09:19.377Z,97272.59
2023-03-11T00:14:22.172Z,97287.56
2023-03-11T00:19:24.997Z,97294.69
2023-03-11T00:24:29.136Z,97298.88
2023-03-11T00:29:32.035Z,97307.03
2023-03-11T00:34:36.169Z,97308.81
2023-03-11T00:39:40.401Z,97317.69
2023-03-11T00:44:43.222Z,97315.06
2023-03-11T00:49:47.063Z,97329.03
2023-03-11T00:54:51.649Z,97336.03
2023-03-11T00:59:55.172Z,97335.75
2023-03-11T01:04:58.875Z,97348.75
2023-03-11T01:10:03.491Z,97339.66
2023-03-11T01:15:08.538Z,97334.22
2023-03-11T01:20:13.298Z,97338.50
2023-03-11T01:25:20.044Z,97331.41
2023-03-11T01:30:24.745Z,97343.69
2023-03-11T01:35:29.567Z,97331.72
2023-03-11T01:40:36.871Z,97350.88
2023-03-11T01:46:11.467Z,97357.81
2023-03-11T01:51:15.632Z,97367.19
2023-03-11T01:56:21.058Z,97358.06
2023-03-11T02:01:25.730Z,97366.69
2023-03-11T02:06:29.477Z,97359.56
2023-03-11T02:11:34.184Z,97358.72
2023-03-11T02:16:38.149Z,97367.53
2023-03-11T02:21:41.185Z,97364.16
2023-03-11T02:26:53.594Z,97383.25
2023-03-11T02:31:58.847Z,97391.94
2023-03-11T02:37:06.075Z,97391.19
2023-03-11T02:42:17.514Z,97394.75
2023-03-11T02:47:20.695Z,97400.75
2023-03-11T02:52:26.204Z,97415.53
2023-03-11T02:57:32.478Z,97414.78
2023-03-11T03:02:35.440Z,97403.38
2023-03-11T03:07:40.319Z,97414.59
2023-03-11T03:12:44.612Z,97422.56
2023-03-11T03:17:47.690Z,97423.41
2023-03-11T03:22:52.533Z,97439.13
2023-03-11T03:27:59.725Z,97438.38
2023-03-11T03:33:03.403Z,97454.75
2023-03-11T03:38:06.873Z,97449.53
2023-03-11T03:43:11.145Z,97447.72
2023-03-11T03:48:16.047Z,97449.53
2023-03-11T03:53:21.657Z,97453.09
2023-03-11T03:58:26.389Z,97461.78
2023-03-11T04:03:29.783Z,97462.63
2023-03-11T04:08:37.764Z,97479.19
2023-03-11T04:13:44.692Z,97482.75
2023-03-11T04:18:48.799Z,97481.34
2023-03-11T04:23:52.979Z,97494.47
2023-03-11T04:29:00.428Z,97488.47
2023-03-11T04:34:06.186Z,97489.28
2023-03-11T04:39:09.198Z,97487.72
2023-03-11T04:44:18.897Z,97498.28
2023-03-11T04:49:21.840Z,97490.88
2023-03-11T04:54:26.851Z,97505.09
2023-03-11T04:59:31.207Z,97509.69
2023-03-11T05:04:34.511Z,97515.22
2023-03-11T05:09:37.657Z,97517.16
2023-03-11T05:14:41.984Z,97522.75
2023-03-11T05:19:44.919Z,97527.44
2023-03-11T05:24:55.137Z,97529.47
2023-03-11T05:30:00.160Z,97536.78
2023-03-11T05:35:06.860Z,97544.88
2023-03-11T05:40:12.673Z,97547.88
2023-03-11T05:45:16.972Z,97556.84
2023-03-11T05:50:22.833Z,97554.47
2023-03-11T05:55:27.609Z,97555.66
2023-03-11T06:00:31.844Z,97563.44
2023-03-11T06:05:37.332Z,97575.75
2023-03-11T06:10:40.447Z,97574.06
2023-03-11T06:15:45.054Z,97579.47
2023-03-11T06:20:48.081Z,97590.34
2023-03-11T06:25:57.074Z,97595.16
2023-03-11T06:31:10.096Z,97610.53
2023-03-11T06:36:15.353Z,97607.91
2023-03-11T06:41:18.228Z,97619.13
2023-03-11T06:46:23.923Z,97627.22
2023-03-11T06:51:28.442Z,97628.84
2023-03-11T06:56:31.346Z,97619.91
2023-03-11T07:01:41.123Z,97633.53
2023-03-11T07:06:45.420Z,97645.44
2023-03-11T07:11:55.649Z,97670.13
2023-03-11T07:17:06.568Z,97680.38
2023-03-11T07:22:22.037Z,97687.88
2023-03-11T07:27:24.791Z,97700.22
2023-03-11T07:32:29.309Z,97698.56
2023-03-11T07:37:32.264Z,97705.50
2023-03-11T07:42:35.061Z,97720.50
2023-03-11T07:47:39.303Z,97730.59
2023-03-11T07:52:42.164Z,97743.38
2023-03-11T07:57:47.580Z,97751.41
2023-03-11T08:02:52.185Z,97765.13
2023-03-11T08:07:54.935Z,97774.88
2023-03-11T08:12:59.178Z,97783.13
2023-03-11T08:18:04.043Z,97785.19
2023-03-11T08:23:06.947Z,97788.44
2023-03-11T08:28:10.089Z,97778.28
2023-03-11T08:33:14.284Z,97797.28
2023-03-11T08:38:20.406Z,97803.00
2023-03-11T08:43:23.215Z,97808.94
2023-03-11T08:48:27.513Z,97790.91
2023-03-11T08:53:30.228Z,97794.19
2023-03-11T08:58:34.131Z,97799.38
2023-03-11T09:03:38.504Z,97805.88
2023-03-11T09:08:41.332Z,97805.19
2023-03-11T09:13:45.012Z,97811.69
2023-03-11T09:18:49.473Z,97802.50
2023-03-11T09:23:53.145Z,97811.38
2023-03-11T09:28:56.152Z,97803.25
2023-03-11T09:34:00.364Z,97811.25
2023-03-11T09:39:03.294Z,97814.53
2023-03-11T09:44:16.024Z,97813.91
2023-03-11T09:49:30.588Z,97810.97
2023-03-11T09:54:38.052Z,97808.22
2023-03-11T09:59:43.630Z,97817.09
2023-03-11T10:04:54.408Z,97820.19
2023-03-11T10:10:00.034Z,97832.78
2023-03-11T10:15:17.545Z,97821.69
2023-03-11T10:20:27.451Z,97827.19
2023-03-11T10:25:37.287Z,97826.97
2023-03-11T10:30:44.318Z,97834.50
2023-03-11T10:35:52.851Z,97838.19
2023-03-11T10:40:58.712Z,97842.69
2023-03-11T10:46:08.022Z,97844.78
2023-03-11T10:51:22.322Z,97845.94
2023-03-11T10:56:28.852Z,97850.19
2023-03-11T11:01:32.092Z,97854.66
2023-03-11T11:06:37.330Z,97857.81
2023-03-11T11:11:40.335Z,97855.06
2023-03-11T11:16:43.186Z,97849.78
2023-03-11T11:21:50.724Z,97860.50
2023-03-11T11:27:07.243Z,97863.22
2023-03-11T11:32:29.358Z,97864.06
2023-03-11T11:37:37.609Z,97850.91
2023-03-11T11:42:42.413Z,97847.53
2023-03-11T11:47:49.528Z,97845.19
2023-03-11T11:52:58.408Z,97828.59
2023-03-11T11:58:01.254Z,97829.00
2023-03-11T12:03:21.053Z,97819.69
2023-03-11T12:08:34.504Z,97827.97
2023-03-11T12:14:02.159Z,97821.66
2023-03-11T12:19:16.594Z,97831.91
2023-03-11T12:24:39.842Z,97837.47
2023-03-11T12:29:47.229Z,97838.78
2023-03-11T12:34:50.345Z,97847.34
2023-03-11T12:39:55.976Z,97834.72
2023-03-11T12:45:43.589Z,97843.38
2023-03-11T12:50:48.363Z,97838.47
2023-03-11T12:56:06.308Z,97846.06
2023-03-11T13:01:18.536Z,97832.00
2023-03-11T13:06:38.051Z,97827.09
2023-03-11T13:11:45.342Z,97848.75
2023-03-11T13:16:48.678Z,97844.00
2023-03-11T13:21:53.176Z,97854.69
2023-03-11T13:27:05.282Z,97858.13
2023-03-11T13:32:26.508Z,97852.03
2023-03-11T13:37:43.613Z,97855.94
2023-03-11T13:42:48.923Z,97864.16
2023-03-11T13:47:54.399Z,97859.22
2023-03-11T13:53:02.265Z,97862.47
2023-03-11T13:58:16.536Z,97860.75
2023-03-11T14:03:22.162Z,97854.44
2023-03-11T14:08:28.890Z,97843.91
2023-03-11T14:13:32.956Z,97842.38
2023-03-11T14:18:38.551Z,97849.66
2023-03-11T14:23:44.923Z,97861.09
2023-03-11T14:28:52.066Z,97858.59
2023-03-11T14:34:04.128Z,97859.81
2023-03-11T14:39:23.915Z,97856.38
2023-03-11T14:44:28.777Z,97862.44
2023-03-11T14:49:32.180Z,97850.34
2023-03-11T14:54:37.882Z,97853.41
2023-03-11T14:59:41.611Z,97851.28
2023-03-11T15:04:44.402Z,97857.16
2023-03-11T15:09:49.220Z,97864.56
2023-03-11T15:14:52.545Z,97853.78
2023-03-11T15:19:55.967Z,97867.72
2023-03-11T15:25:02.589Z,97865.94
2023-03-11T15:30:20.253Z,97872.81
2023-03-11T15:35:25.028Z,97877.66
2023-03-11T15:40:44.302Z,97882.56
2023-03-11T15:45:49.521Z,97876.94
2023-03-11T15:50:55.181Z,97889.38
2023-03-11T15:56:07.703Z,97887.19
2023-03-11T16:01:11.011Z,97897.31
2023-03-11T16:06:15.952Z,97892.59
2023-03-11T16:11:20.260Z,97895.97
2023-03-11T16:16:23.329Z,97897.41
2023-03-11T16:21:32.731Z,97908.63
2023-03-11T16:26:37.619Z,97898.50
2023-03-11T16:31:40.357Z,97893.13
2023-03-11T16:36:43.170Z,97901.75
2023-03-11T16:41:47.590Z,97903.41
2023-03-11T16:46:50.467Z,97910.97
2023-03-11T16:51:53.373Z,97911.03
2023-03-11T16:56:57.721Z,97922.16
2023-03-11T17:02:00.611Z,97914.97
2023-03-11T17:07:03.800Z,97916.84
2023-03-11T17:12:09.083Z,97913.81
2023-03-11T17:17:11.940Z,97920.81
2023-03-11T17:22:15.149Z,97927.41
2023-03-11T17:27:19.626Z,97928.63
2023-03-11T17:32:22.483Z,97934.31
2023-03-11T17:37:25.500Z,97943.31
2023-03-11T17:42:30.574Z,97956.13
2023-03-11T17:47:35.556Z,97966.25
2023-03-11T17:52:38.592Z,97965.38
2023-03-11T17:57:45.859Z,97978.09
2023-03-11T18:02:51.906Z,97991.44
2023-03-11T18:07:54.701Z,97988.41
2023-03-11T18:12:58.923Z,97985.88
2023-03-11T18:18:01.907Z,97988.56
2023-03-11T18:23:05.653Z,97984.41
2023-03-11T18:28:09.947Z,97988.09
2023-03-11T18:33:13.084Z,97994.81
2023-03-11T18:38:16.346Z,97995.59
2023-03-11T18:43:20.448Z,97988.31
2023-03-11T18:48:23.582Z,97994.44
2023-03-11T18:53:26.968Z,97991.81
2023-03-11T18:58:31.415Z,97981.84
2023-03-11T19:03:34.389Z,97989.34
2023-03-11T19:08:37.260Z,97998.56
2023-03-11T19:13:47.122Z,97999.13
2023-03-11T19:18:51.331Z,98009.34
2023-03-11T19:23:55.361Z,97995.72
2023-03-11T19:28:59.953Z,98005.00
2023-03-11T19:34:03.060Z,98027.66
2023-03-11T19:39:05.997Z,98022.31
2023-03-11T19:44:10.231Z,98009.34
2023-03-11T19:49:13.131Z,98013.47
2023-03-11T19:54:16.475Z,98026.00
2023-03-11T19:59:21.333Z,98036.41
2023-03-11T20:04:24.322Z,98047.03
2023-03-11T20:09:27.246Z,98055.06
2023-03-11T20:14:31.566Z,98058.66
2023-03-11T20:19:34.608Z,98056.50
2023-03-11T20:24:37.557Z,98060.25
2023-03-11T20:29:41.813Z,98056.03
2023-03-11T20:34:45.078Z,98058.09
2023-03-11T20:39:48.045Z,98059.16
2023-03-11T20:44:54.502Z,98070.75
2023-03-11T20:49:57.350Z,98069.53
2023-03-11T20:55:00.426Z,98059.88
2023-03-11T21:00:08.183Z,98057.66
2023-03-11T21:05:12.583Z,98055.19
2023-03-11T21:10:16.593Z,98062.75
2023-03-11T21:15:20.896Z,98066.16
2023-03-11T21:20:23.866Z,98059.13
2023-03-11T21:25:27.099Z,98056.91
2023-03-11T21:30:31.398Z,98061.41
2023-03-11T21:35:34.348Z,98059.22
2023-03-11T21:40:37.231Z,98062.00
2023-03-11T21:45:43.081Z,98060.94
2023-03-11T21:50:45.985Z,98069.13
2023-03-11T21:55:48.917Z,98061.47
2023-03-11T22:00:54.006Z,98061.63
2023-03-11T22:05:58.171Z,98062.03
2023-03-11T22:11:01.610Z,98064.47
2023-03-11T22:16:07.408Z,98064.66
2023-03-11T22:21:11.171Z,98068.28
2023-03-11T22:26:14.903Z,98056.81
2023-03-11T22:31:19.097Z,98053.41
2023-03-11T22:36:22.125Z,98056.13
2023-03-11T22:41:24.998Z,98065.84
2023-03-11T22:46:30.849Z,98066.28
2023-03-11T22:51:33.752Z,98073.88
2023-03-11T22:56:36.546Z,98069.53
2023-03-11T23:01:40.701Z,98070.72
2023-03-11T23:06:43.488Z,98064.97
2023-03-11T23:11:46.368Z,98066.00
2023-03-11T23:16:50.688Z,98074.91
2023-03-11T23:21:53.533Z,98067.94
2023-03-11T23:26:56.294Z,98062.50
2023-03-11T23:32:00.511Z,98064.91
2023-03-11T23:37:05.412Z,98072.56
2023-03-11T23:42:22.586Z,98080.13
2023-03-11T23:47:29.756Z,98073.97
2023-03-11T23:52:32.804Z,98073.06
2023-03-11T23:57:36.105Z,98062.19
